createdAt,value
2018-08-03T00:00:57.420Z,12.13
2018-08-03T00:03:26.707Z,11.87
2018-08-03T00:05:56.194Z,12.17
2018-08-03T00:08:25.493Z,23.17
2018-08-03T00:10:54.739Z,9.77
2018-08-03T00:13:23.959Z,11.27
2018-08-03T00:15:53.286Z,11.10
2018-08-03T00:18:22.589Z,13.97
2018-08-03T00:20:51.854Z,12.60
2018-08-03T00:23:21.237Z,17.80
2018-08-03T00:25:50.521Z,22.87
2018-08-03T00:28:19.811Z,20.10
2018-08-03T00:30:49.141Z,18.90
2018-08-03T00:33:18.478Z,21.90
2018-08-03T00:35:47.799Z,24.80
2018-08-03T00:38:16.648Z,17.90
2018-08-03T00:40:45.937Z,22.93
2018-08-03T00:43:15.210Z,30.17
2018-08-03T00:45:44.394Z,25.00
2018-08-03T00:48:13.232Z,27.00
2018-08-03T00:50:42.482Z,21.43
2018-08-03T00:53:11.186Z,21.23
2018-08-03T00:55:40.426Z,20.60
2018-08-03T00:58:09.682Z,20.43
2018-08-03T01:00:38.945Z,18.90
2018-08-03T01:03:08.538Z,21.43
2018-08-03T01:05:37.758Z,26.30
2018-08-03T01:08:07.031Z,18.33
2018-08-03T01:10:36.368Z,22.07
2018-08-03T01:13:05.157Z,12.33
2018-08-03T01:15:33.843Z,14.27
2018-08-03T01:18:02.598Z,16.20
2018-08-03T01:20:31.835Z,11.80
2018-08-03T01:23:00.645Z,17.70
2018-08-03T01:25:29.962Z,11.70
2018-08-03T01:27:59.185Z,13.80
2018-08-03T01:30:28.524Z,14.57
2018-08-03T01:32:57.293Z,13.80
2018-08-03T01:35:26.039Z,14.57
2018-08-03T01:37:55.389Z,12.77
2018-08-03T01:40:24.654Z,15.20
2018-08-03T01:42:53.961Z,13.70
2018-08-03T01:45:23.279Z,10.43
2018-08-03T01:47:52.673Z,12.87
2018-08-03T01:50:21.922Z,10.27
2018-08-03T01:52:51.158Z,12.70
2018-08-03T01:55:20.455Z,9.17
2018-08-03T01:57:49.750Z,32.93
2018-08-03T02:00:19.195Z,9.90
2018-08-03T02:02:48.515Z,13.77
2018-08-03T02:05:17.833Z,13.20
2018-08-03T02:07:47.046Z,10.80
2018-08-03T02:10:16.366Z,15.27
2018-08-03T02:12:45.559Z,9.80
2018-08-03T02:15:14.844Z,10.10
2018-08-03T02:17:44.164Z,11.70
2018-08-03T02:20:13.772Z,10.27
2018-08-03T02:22:43.010Z,9.83
2018-08-03T02:25:12.305Z,21.27
2018-08-03T02:27:41.580Z,8.73
2018-08-03T02:30:10.824Z,10.13
2018-08-03T02:32:40.109Z,11.47
2018-08-03T02:35:09.350Z,9.57
2018-08-03T02:37:38.614Z,15.23
2018-08-03T02:40:07.964Z,11.83
2018-08-03T02:42:37.279Z,18.13
2018-08-03T02:45:06.641Z,9.33
2018-08-03T02:47:35.897Z,10.90
2018-08-03T02:50:04.607Z,11.83
2018-08-03T02:52:33.834Z,10.57
2018-08-03T02:55:03.146Z,11.63
2018-08-03T02:57:32.468Z,16.60
2018-08-03T03:00:01.736Z,17.03
2018-08-03T03:02:31.003Z,14.53
2018-08-03T03:05:00.290Z,19.23
2018-08-03T03:07:29.559Z,10.83
2018-08-03T03:09:58.864Z,17.77
2018-08-03T03:12:28.323Z,22.23
2018-08-03T03:14:57.522Z,14.83
2018-08-03T03:17:26.823Z,13.43
2018-08-03T03:19:56.068Z,14.37
2018-08-03T03:22:25.295Z,19.20
2018-08-03T03:24:54.654Z,14.27
2018-08-03T03:27:24.014Z,13.47
2018-08-03T03:29:53.348Z,18.97
2018-08-03T03:32:25.533Z,16.93
2018-08-03T03:34:54.807Z,21.63
2018-08-03T03:37:24.007Z,19.67
2018-08-03T03:39:53.244Z,19.40
2018-08-03T03:42:22.064Z,19.67
2018-08-03T03:44:51.356Z,29.80
2018-08-03T03:47:20.627Z,18.50
2018-08-03T03:49:49.342Z,17.63
2018-08-03T03:52:18.644Z,17.63
2018-08-03T03:54:47.873Z,23.23
2018-08-03T03:57:17.184Z,18.50
2018-08-03T03:59:46.460Z,16.53
2018-08-03T04:02:15.717Z,12.90
2018-08-03T04:04:44.527Z,17.70
2018-08-03T04:07:13.865Z,19.53
2018-08-03T04:09:43.257Z,14.80
2018-08-03T04:12:12.545Z,14.63
2018-08-03T04:14:41.828Z,14.60
2018-08-03T04:17:11.107Z,12.57
2018-08-03T04:19:39.838Z,15.17
2018-08-03T04:22:09.138Z,16.77
2018-08-03T04:24:38.494Z,12.53
2018-08-03T04:27:07.810Z,19.60
2018-08-03T04:29:37.115Z,17.93
2018-08-03T04:32:06.441Z,14.97
2018-08-03T04:34:35.720Z,11.80
2018-08-03T04:37:04.995Z,13.77
2018-08-03T04:39:33.734Z,14.70
2018-08-03T04:42:03.025Z,10.77
2018-08-03T04:44:32.283Z,13.30
2018-08-03T04:47:01.077Z,20.00
2018-08-03T04:49:30.362Z,12.07
2018-08-03T04:51:59.665Z,16.13
2018-08-03T04:54:28.384Z,28.33
2018-08-03T04:56:57.612Z,16.43
2018-08-03T04:59:26.907Z,31.47
2018-08-03T05:02:02.410Z,14.30
2018-08-03T05:04:31.679Z,21.23
2018-08-03T05:07:00.879Z,17.93
2018-08-03T05:09:30.155Z,13.20
2018-08-03T05:11:59.442Z,14.70
2018-08-03T05:14:28.729Z,20.70
2018-08-03T05:16:58.043Z,20.97
2018-08-03T05:19:27.291Z,14.60
2018-08-03T05:21:56.022Z,18.10
2018-08-03T05:24:25.287Z,18.03
2018-08-03T05:26:54.651Z,19.07
2018-08-03T05:29:23.941Z,23.87
2018-08-03T05:31:53.223Z,38.57
2018-08-03T05:34:22.510Z,55.73
2018-08-03T05:36:51.810Z,41.67
2018-08-03T05:39:21.030Z,29.60
2018-08-03T05:41:50.285Z,27.83
2018-08-03T05:44:19.541Z,23.83
2018-08-03T05:46:48.786Z,26.53
2018-08-03T05:49:18.063Z,22.47
2018-08-03T05:51:47.339Z,15.83
2018-08-03T05:54:16.578Z,23.60
2018-08-03T05:56:45.813Z,29.23
2018-08-03T05:59:15.102Z,22.77
2018-08-03T06:01:44.387Z,24.33
2018-08-03T06:04:13.926Z,17.37
2018-08-03T06:06:43.339Z,30.67
2018-08-03T06:09:12.657Z,19.63
2018-08-03T06:11:41.991Z,24.67
2018-08-03T06:14:11.272Z,37.53
2018-08-03T06:16:39.990Z,30.70
2018-08-03T06:19:09.344Z,30.80
2018-08-03T06:21:38.790Z,24.07
2018-08-03T06:24:08.357Z,34.83
2018-08-03T06:26:37.605Z,30.53
2018-08-03T06:29:06.941Z,28.90
2018-08-03T06:31:36.325Z,31.47
2018-08-03T06:34:05.611Z,25.70
2018-08-03T06:36:34.885Z,33.20
2018-08-03T06:39:08.702Z,25.50
2018-08-03T06:41:38.382Z,32.40
2018-08-03T06:44:08.976Z,23.70
2018-08-03T06:46:38.241Z,29.23
2018-08-03T06:49:07.535Z,24.73
2018-08-03T06:51:36.883Z,28.50
2018-08-03T06:54:06.637Z,29.30
2018-08-03T06:56:36.021Z,30.67
2018-08-03T06:59:05.353Z,26.73
2018-08-03T07:01:34.723Z,28.60
2018-08-03T07:04:04.163Z,31.73
2018-08-03T07:06:33.435Z,28.83
2018-08-03T07:09:02.259Z,25.37
2018-08-03T07:11:31.613Z,30.53
2018-08-03T07:14:00.946Z,27.33
2018-08-03T07:16:30.220Z,32.17
2018-08-03T07:18:58.915Z,30.83
2018-08-03T07:21:27.813Z,32.20
2018-08-03T07:23:57.690Z,32.10
2018-08-03T07:26:26.954Z,39.07
2018-08-03T07:28:56.269Z,46.03
2018-08-03T07:31:25.577Z,35.00
2018-08-03T07:33:54.893Z,41.17
2018-08-03T07:36:24.168Z,39.90
2018-08-03T07:38:53.482Z,36.90
2018-08-03T07:41:22.747Z,43.13
2018-08-03T07:43:52.023Z,34.73
2018-08-03T07:46:20.813Z,46.40
2018-08-03T07:48:50.035Z,43.60
2018-08-03T07:51:19.384Z,38.73
2018-08-03T07:53:48.760Z,37.20
2018-08-03T07:56:17.983Z,38.03
2018-08-03T07:58:47.274Z,31.60
2018-08-03T08:01:16.618Z,33.07
2018-08-03T08:03:45.378Z,32.63
2018-08-03T08:06:14.209Z,34.47
2018-08-03T08:08:43.531Z,31.27
2018-08-03T08:11:12.855Z,34.67
2018-08-03T08:13:42.508Z,30.87
2018-08-03T08:16:11.975Z,23.43
2018-08-03T08:18:41.235Z,27.60
2018-08-03T08:21:10.519Z,25.03
2018-08-03T08:23:39.865Z,29.53
2018-08-03T08:26:09.308Z,25.37
2018-08-03T08:28:38.602Z,24.97
2018-08-03T08:31:07.999Z,26.20
2018-08-03T08:33:36.845Z,24.30
2018-08-03T08:36:06.175Z,25.60
2018-08-03T08:38:35.473Z,36.40
2018-08-03T08:41:04.796Z,35.57
2018-08-03T08:43:33.675Z,27.23
2018-08-03T08:46:03.093Z,27.33
2018-08-03T08:48:32.475Z,23.07
2018-08-03T08:51:01.857Z,30.17
2018-08-03T08:53:31.333Z,30.10
2018-08-03T08:56:00.574Z,24.20
2018-08-03T08:58:30.086Z,20.70
2018-08-03T09:00:58.883Z,26.43
2018-08-03T09:03:28.199Z,33.17
2018-08-03T09:05:57.549Z,34.00
2018-08-03T09:08:26.871Z,34.53
2018-08-03T09:10:56.161Z,41.73
2018-08-03T09:13:25.417Z,35.13
2018-08-03T09:15:54.707Z,36.97
2018-08-03T09:18:24.087Z,33.40
2018-08-03T09:20:53.461Z,30.77
2018-08-03T09:23:22.762Z,26.17
2018-08-03T09:25:52.174Z,31.47
2018-08-03T09:28:21.539Z,39.57
2018-08-03T09:30:50.842Z,26.60
2018-08-03T09:33:20.095Z,30.97
2018-08-03T09:35:48.972Z,23.77
2018-08-03T09:38:18.247Z,26.80
2018-08-03T09:40:47.650Z,17.70
2018-08-03T09:43:16.974Z,22.53
2018-08-03T09:45:45.707Z,16.67
2018-08-03T09:48:15.019Z,17.03
2018-08-03T09:50:44.288Z,23.53
2018-08-03T09:53:13.551Z,32.93
2018-08-03T09:55:42.905Z,28.70
2018-08-03T09:58:12.193Z,29.67
2018-08-03T10:00:46.560Z,28.60
2018-08-03T10:03:15.924Z,29.50
2018-08-03T10:05:45.297Z,35.57
2018-08-03T10:08:14.670Z,32.50
2018-08-03T10:10:43.903Z,28.87
2018-08-03T10:13:13.303Z,28.42
2018-08-03T10:15:42.658Z,28.73
2018-08-03T10:18:11.917Z,20.87
2018-08-03T10:20:41.306Z,24.70
2018-08-03T10:23:10.628Z,24.65
2018-08-03T10:25:39.881Z,22.15
2018-08-03T10:28:09.366Z,21.57
2018-08-03T10:30:38.587Z,25.30
2018-08-03T10:33:07.842Z,21.13
2018-08-03T10:35:37.142Z,21.37
2018-08-03T10:38:06.569Z,24.17
2018-08-03T10:40:35.901Z,20.70
2018-08-03T10:43:05.397Z,21.97
2018-08-03T10:45:34.225Z,19.87
2018-08-03T10:48:03.503Z,21.90
2018-08-03T10:50:32.298Z,19.10
2018-08-03T10:53:01.578Z,29.00
2018-08-03T10:55:30.521Z,21.23
2018-08-03T10:57:59.896Z,19.17
2018-08-03T11:00:31.068Z,25.87
2018-08-03T11:03:00.765Z,19.23
2018-08-03T11:05:30.454Z,17.47
2018-08-03T11:07:59.747Z,20.17
2018-08-03T11:10:29.939Z,26.13
2018-08-03T11:12:59.338Z,21.57
2018-08-03T11:15:28.684Z,18.10
2018-08-03T11:17:57.998Z,25.87
2018-08-03T11:20:27.336Z,25.57
2018-08-03T11:22:56.603Z,27.37
2018-08-03T11:25:25.973Z,37.53
2018-08-03T11:27:55.291Z,33.40
2018-08-03T11:30:24.677Z,30.83
2018-08-03T11:32:53.574Z,27.70
2018-08-03T11:35:22.865Z,23.50
2018-08-03T11:37:51.601Z,25.53
2018-08-03T11:40:20.975Z,22.97
2018-08-03T11:42:50.258Z,23.40
2018-08-03T11:45:19.475Z,20.10
2018-08-03T11:47:48.799Z,15.43
2018-08-03T11:50:18.123Z,17.60
2018-08-03T11:52:47.387Z,16.40
2018-08-03T11:55:16.656Z,17.60
2018-08-03T11:57:45.491Z,19.67
2018-08-03T12:00:14.842Z,21.40
2018-08-03T12:02:44.167Z,18.07
2018-08-03T12:05:13.568Z,18.17
2018-08-03T12:07:42.935Z,22.33
2018-08-03T12:10:12.278Z,21.80
2018-08-03T12:12:41.850Z,20.30
2018-08-03T12:15:11.071Z,19.70
2018-08-03T12:17:40.455Z,26.00
2018-08-03T12:20:11.158Z,21.60
2018-08-03T12:22:40.429Z,21.13
2018-08-03T12:25:09.740Z,23.87
2018-08-03T12:27:38.990Z,25.60
2018-08-03T12:30:08.543Z,29.63
2018-08-03T12:32:37.793Z,23.30
2018-08-03T12:35:07.301Z,22.57
2018-08-03T12:37:36.620Z,22.03
2018-08-03T12:40:05.870Z,26.10
2018-08-03T12:42:35.125Z,27.60
2018-08-03T12:45:04.442Z,24.33
2018-08-03T12:47:33.858Z,27.97
2018-08-03T12:50:03.172Z,23.30
2018-08-03T12:52:32.488Z,25.93
2018-08-03T12:55:01.711Z,31.17
2018-08-03T12:57:31.042Z,33.03
2018-08-03T13:00:00.951Z,27.63
2018-08-03T13:02:30.274Z,26.50
2018-08-03T13:04:59.858Z,25.33
2018-08-03T13:07:29.430Z,27.37
2018-08-03T13:09:58.114Z,28.20
2018-08-03T13:12:27.517Z,31.07
2018-08-03T13:14:56.862Z,30.13
2018-08-03T13:17:26.109Z,30.47
2018-08-03T13:19:54.879Z,26.87
2018-08-03T13:22:24.858Z,34.33
2018-08-03T13:24:54.334Z,32.23
2018-08-03T13:27:24.035Z,24.43
2018-08-03T13:29:53.347Z,29.83
2018-08-03T13:32:22.878Z,27.67
2018-08-03T13:34:52.147Z,24.83
2018-08-03T13:37:21.412Z,28.00
2018-08-03T13:39:50.698Z,24.80
2018-08-03T13:42:20.001Z,24.83
2018-08-03T13:44:49.463Z,27.30
2018-08-03T13:47:18.761Z,31.30
2018-08-03T13:49:48.671Z,26.63
2018-08-03T13:52:18.052Z,27.10
2018-08-03T13:54:47.431Z,27.50
2018-08-03T13:57:16.718Z,28.00
2018-08-03T13:59:45.955Z,26.93
2018-08-03T14:02:21.774Z,25.63
2018-08-03T14:05:34.277Z,26.47
2018-08-03T14:08:03.716Z,27.70
2018-08-03T14:10:32.927Z,28.00
2018-08-03T14:13:02.189Z,27.53
2018-08-03T14:15:31.457Z,31.40
2018-08-03T14:18:00.815Z,27.73
2018-08-03T14:20:30.096Z,26.33
2018-08-03T14:22:59.399Z,26.27
2018-08-03T14:25:28.750Z,28.30
2018-08-03T14:27:58.006Z,27.43
2018-08-03T14:30:26.806Z,24.57
2018-08-03T14:32:56.255Z,25.40
2018-08-03T14:35:25.539Z,22.48
2018-08-03T14:37:54.942Z,25.87
2018-08-03T14:40:24.230Z,28.00
2018-08-03T14:42:53.544Z,27.77
2018-08-03T14:45:22.857Z,28.17
2018-08-03T14:47:52.150Z,25.53
2018-08-03T14:50:21.394Z,27.23
2018-08-03T14:52:50.723Z,30.87
2018-08-03T14:55:20.030Z,26.07
2018-08-03T14:57:49.341Z,25.77
2018-08-03T15:00:18.646Z,28.83
2018-08-03T15:02:47.919Z,27.43
2018-08-03T15:05:17.318Z,25.13
2018-08-03T15:07:46.654Z,27.80
2018-08-03T15:10:16.025Z,26.83
2018-08-03T15:12:45.394Z,25.50
2018-08-03T15:15:14.759Z,24.30
2018-08-03T15:17:44.138Z,26.43
2018-08-03T15:20:13.363Z,32.80
2018-08-03T15:22:42.645Z,26.93
2018-08-03T15:25:11.931Z,28.00
2018-08-03T15:27:41.190Z,25.10
2018-08-03T15:30:11.372Z,27.10
2018-08-03T15:32:40.965Z,25.60
2018-08-03T15:35:10.295Z,23.53
2018-08-03T15:37:39.604Z,23.97
2018-08-03T15:40:09.091Z,21.50
2018-08-03T15:42:38.554Z,21.93
2018-08-03T15:45:08.803Z,18.90
2018-08-03T15:47:38.192Z,27.30
2018-08-03T15:50:07.712Z,20.40
2018-08-03T15:52:37.110Z,20.80
2018-08-03T15:55:06.432Z,24.70
2018-08-03T15:57:36.211Z,22.07
2018-08-03T16:00:07.377Z,25.53
2018-08-03T16:02:36.672Z,24.53
2018-08-03T16:05:06.526Z,24.30
2018-08-03T16:07:35.821Z,27.30
2018-08-03T16:10:05.493Z,24.20
2018-08-03T16:12:34.845Z,25.13
2018-08-03T16:15:04.398Z,24.13
2018-08-03T16:17:33.732Z,25.90
2018-08-03T16:20:03.127Z,25.63
2018-08-03T16:22:32.410Z,33.23
2018-08-03T16:25:01.759Z,25.00
2018-08-03T16:27:31.150Z,27.67
2018-08-03T16:30:00.438Z,21.63
2018-08-03T16:32:29.818Z,25.83
2018-08-03T16:34:59.224Z,27.00
2018-08-03T16:37:28.626Z,25.37
2018-08-03T16:39:57.990Z,22.47
2018-08-03T16:42:27.296Z,24.00
2018-08-03T16:44:56.592Z,23.13
2018-08-03T16:47:26.011Z,26.67
2018-08-03T16:49:55.315Z,21.13
2018-08-03T16:52:24.609Z,20.37
2018-08-03T16:54:53.986Z,22.53
2018-08-03T16:57:22.703Z,21.60
2018-08-03T16:59:51.965Z,24.43
2018-08-03T17:02:20.691Z,18.63
2018-08-03T17:04:50.026Z,22.33
2018-08-03T17:07:19.283Z,24.47
2018-08-03T17:09:48.723Z,22.40
2018-08-03T17:12:18.046Z,22.10
2018-08-03T17:14:47.338Z,29.40
2018-08-03T17:17:16.659Z,21.40
2018-08-03T17:19:45.373Z,20.93
2018-08-03T17:22:15.059Z,23.97
2018-08-03T17:24:43.862Z,22.43
2018-08-03T17:27:13.327Z,21.40
2018-08-03T17:29:42.816Z,19.73
2018-08-03T17:32:12.143Z,22.70
2018-08-03T17:34:41.394Z,19.53
2018-08-03T17:37:10.745Z,21.47
2018-08-03T17:39:39.493Z,22.83
2018-08-03T17:42:08.803Z,26.50
2018-08-03T17:44:38.286Z,22.60
2018-08-03T17:47:07.820Z,23.10
2018-08-03T17:49:37.099Z,20.80
2018-08-03T17:52:10.898Z,21.77
2018-08-03T17:54:40.242Z,19.10
2018-08-03T17:57:09.503Z,20.87
2018-08-03T17:59:38.801Z,21.57
2018-08-03T18:02:08.108Z,21.23
2018-08-03T18:04:37.458Z,31.80
2018-08-03T18:07:06.857Z,21.17
2018-08-03T18:09:36.232Z,20.13
2018-08-03T18:12:05.472Z,23.43
2018-08-03T18:14:34.229Z,23.37
2018-08-03T18:17:03.640Z,20.63
2018-08-03T18:19:32.992Z,22.17
2018-08-03T18:22:02.364Z,17.60
2018-08-03T18:24:31.663Z,21.80
2018-08-03T18:27:01.279Z,22.53
2018-08-03T18:29:30.590Z,39.43
2018-08-03T18:32:00.074Z,19.40
2018-08-03T18:34:28.877Z,20.33
2018-08-03T18:36:58.128Z,22.53
2018-08-03T18:39:27.381Z,16.80
2018-08-03T18:41:56.688Z,18.97
2018-08-03T18:44:26.211Z,21.00
2018-08-03T18:46:55.586Z,21.50
2018-08-03T18:49:24.850Z,20.50
2018-08-03T18:51:54.184Z,19.63
2018-08-03T18:54:23.490Z,21.00
2018-08-03T18:56:52.971Z,21.53
2018-08-03T18:59:21.738Z,25.90
2018-08-03T19:01:51.155Z,20.70
2018-08-03T19:04:19.892Z,21.10
2018-08-03T19:06:49.210Z,17.90
2018-08-03T19:09:18.779Z,18.43
2018-08-03T19:11:48.062Z,21.83
2018-08-03T19:14:17.432Z,30.62
2018-08-03T19:16:46.723Z,18.43
2018-08-03T19:19:15.959Z,20.90
2018-08-03T19:21:45.294Z,62.90
2018-08-03T19:24:14.536Z,33.40
2018-08-03T19:26:43.906Z,32.27
2018-08-03T19:29:13.175Z,28.70
2018-08-03T19:31:42.531Z,25.87
2018-08-03T19:34:11.804Z,23.03
2018-08-03T19:36:41.145Z,31.10
2018-08-03T19:39:11.265Z,25.68
2018-08-03T19:41:40.072Z,29.57
2018-08-03T19:44:09.351Z,19.75
2018-08-03T19:46:44.557Z,20.10
2018-08-03T19:49:13.838Z,25.70
2018-08-03T19:51:43.127Z,17.40
2018-08-03T19:54:12.464Z,16.27
2018-08-03T19:56:41.758Z,24.90
2018-08-03T19:59:11.180Z,38.53
2018-08-03T20:01:40.677Z,19.83
2018-08-03T20:04:09.976Z,18.53
2018-08-03T20:06:39.255Z,26.33
2018-08-03T20:09:11.504Z,26.87
2018-08-03T20:11:40.940Z,23.47
2018-08-03T20:14:10.238Z,21.57
2018-08-03T20:16:39.517Z,20.87
2018-08-03T20:19:08.784Z,21.23
2018-08-03T20:21:38.036Z,25.10
2018-08-03T20:24:07.413Z,22.33
2018-08-03T20:26:36.715Z,21.90
2018-08-03T20:29:06.071Z,26.53
2018-08-03T20:31:34.916Z,21.13
2018-08-03T20:34:04.208Z,19.90
2018-08-03T20:36:33.518Z,19.47
2018-08-03T20:39:02.899Z,16.53
2018-08-03T20:41:32.202Z,21.07
2018-08-03T20:44:01.443Z,27.67
2018-08-03T20:46:30.827Z,22.80
2018-08-03T20:49:00.124Z,23.60
2018-08-03T20:51:29.398Z,23.90
2018-08-03T20:53:59.037Z,20.83
2018-08-03T20:56:28.305Z,21.60
2018-08-03T20:58:57.531Z,26.33
2018-08-03T21:01:26.872Z,26.73
2018-08-03T21:03:55.632Z,40.83
2018-08-03T21:06:24.919Z,20.43
2018-08-03T21:08:54.179Z,26.20
2018-08-03T21:11:23.467Z,24.83
2018-08-03T21:13:52.225Z,20.13
2018-08-03T21:16:21.597Z,38.73
2018-08-03T21:18:50.889Z,30.47
2018-08-03T21:21:20.135Z,21.67
2018-08-03T21:23:49.449Z,21.87
2018-08-03T21:26:18.605Z,20.07
2018-08-03T21:28:47.855Z,25.07
2018-08-03T21:31:17.142Z,21.87
2018-08-03T21:33:46.406Z,22.23
2018-08-03T21:36:15.699Z,34.37
2018-08-03T21:38:44.948Z,28.17
2018-08-03T21:41:14.415Z,22.13
2018-08-03T21:43:43.729Z,23.87
2018-08-03T21:46:12.567Z,21.20
2018-08-03T21:48:41.910Z,27.57
2018-08-03T21:51:11.311Z,21.20
2018-08-03T21:53:40.667Z,17.53
2018-08-03T21:56:10.047Z,21.82
2018-08-03T21:58:39.510Z,22.50
2018-08-03T22:01:11.958Z,21.97
2018-08-03T22:03:41.780Z,20.93
2018-08-03T22:06:11.713Z,21.67
2018-08-03T22:08:41.101Z,24.40
2018-08-03T22:11:10.418Z,17.87
2018-08-03T22:13:39.674Z,18.83
2018-08-03T22:16:08.993Z,17.20
2018-08-03T22:18:38.358Z,20.23
2018-08-03T22:21:08.420Z,18.17
2018-08-03T22:23:37.779Z,17.13
2018-08-03T22:26:07.079Z,18.90
2018-08-03T22:28:36.584Z,17.77
2018-08-03T22:31:05.479Z,20.67
2018-08-03T22:33:34.279Z,18.50
2018-08-03T22:36:03.616Z,20.03
2018-08-03T22:38:33.159Z,20.17
2018-08-03T22:41:02.519Z,20.50
2018-08-03T22:43:31.842Z,19.40
2018-08-03T22:46:01.334Z,20.53
2018-08-03T22:48:30.758Z,20.17
2018-08-03T22:50:59.633Z,22.13
2018-08-03T22:53:28.861Z,21.43
2018-08-03T22:55:57.735Z,21.80
2018-08-03T22:58:27.110Z,20.40
2018-08-03T23:00:56.486Z,19.73
2018-08-03T23:03:25.869Z,22.63
2018-08-03T23:05:55.160Z,18.53
2018-08-03T23:08:24.007Z,21.17
2018-08-03T23:10:53.372Z,20.90
2018-08-03T23:13:22.604Z,20.27
2018-08-03T23:15:51.967Z,21.43
2018-08-03T23:18:21.445Z,26.90
2018-08-03T23:20:50.162Z,20.43
2018-08-03T23:23:19.473Z,22.30
2018-08-03T23:25:48.850Z,24.80
2018-08-03T23:28:18.074Z,27.93
2018-08-03T23:30:47.355Z,19.63
2018-08-03T23:33:16.805Z,20.93
2018-08-03T23:35:46.160Z,18.30
2018-08-03T23:38:15.446Z,16.90
2018-08-03T23:40:44.265Z,18.90
2018-08-03T23:43:13.656Z,18.00
2018-08-03T23:45:43.023Z,17.90
2018-08-03T23:48:11.794Z,16.23
2018-08-03T23:50:41.227Z,15.93
2018-08-03T23:53:10.716Z,19.10
2018-08-03T23:55:40.129Z,19.83
2018-08-03T23:58:09.647Z,18.43
